Time;durP1;ratioP1;P1;durP2;ratioP2;P2;SDS_P1;SDS_P2;PMS_P1;PMS_P2;Temp;Humidity;BMP_temperature;BMP_pressure;BME280_temperature;BME280_humidity;BME280_pressure;Samples;Min_cycle;Max_cycle;Signal;HPM_P1;HPM_P2
2022/12/28 00:00:39;;;;;;;24.83;18.70;;;12.60;88.00;;;;;;10830107;32;20334;-73
2022/12/28 00:06:41;;;;;;;29.63;23.75;;;12.60;88.10;;;;;;10830017;32;20042;-73
2022/12/28 00:12:42;;;;;;;25.83;20.17;;;12.60;88.30;;;;;;10828095;32;20054;-73
2022/12/28 00:18:45;;;;;;;32.70;27.20;;;12.60;88.50;;;;;;10812759;33;20020;-73
2022/12/28 00:24:47;;;;;;;32.65;25.77;;;12.60;88.70;;;;;;10855994;27;20032;-73
2022/12/28 00:30:49;;;;;;;30.15;22.77;;;12.60;88.70;;;;;;10867007;32;20046;-73
2022/12/28 00:36:52;;;;;;;28.42;23.38;;;12.60;88.40;;;;;;10874049;32;20046;-73
2022/12/28 00:42:54;;;;;;;31.05;21.42;;;12.50;88.20;;;;;;10873778;32;20053;-73
2022/12/28 00:48:58;;;;;;;29.35;24.58;;;12.40;88.10;;;;;;10860413;32;20059;-73
2022/12/28 00:55:01;;;;;;;23.52;19.33;;;12.40;88.40;;;;;;10868961;32;20066;-73
2022/12/28 01:01:04;;;;;;;25.02;20.67;;;12.50;88.00;;;;;;10872488;32;20032;-73
2022/12/28 01:07:06;;;;;;;26.92;17.48;;;12.40;87.90;;;;;;10859746;32;20007;-73
2022/12/28 01:13:08;;;;;;;28.20;19.65;;;12.40;88.00;;;;;;10872763;32;20059;-73
2022/12/28 01:19:16;;;;;;;25.62;18.77;;;12.50;88.10;;;;;;10872693;32;20042;-73
2022/12/28 01:25:19;;;;;;;19.52;15.65;;;12.40;88.00;;;;;;10856193;32;20097;-73
2022/12/28 01:31:21;;;;;;;23.77;18.90;;;12.40;88.30;;;;;;10872051;32;20020;-73
2022/12/28 01:37:25;;;;;;;20.05;15.60;;;12.40;88.50;;;;;;10871923;32;20042;-73
2022/12/28 01:43:43;;;;;;;18.75;14.52;;;12.40;88.50;;;;;;10871454;32;20042;-73
2022/12/28 01:50:02;;;;;;;18.25;13.10;;;12.40;88.50;;;;;;10871477;32;20024;-73
2022/12/28 01:56:04;;;;;;;18.40;13.77;;;12.30;88.20;;;;;;10871354;32;20432;-74
2022/12/28 02:02:09;;;;;;;20.80;16.30;;;12.10;88.30;;;;;;10857984;32;20028;-73
2022/12/28 02:08:23;;;;;;;24.75;13.45;;;12.20;88.50;;;;;;10853775;32;20042;-73
2022/12/28 02:14:25;;;;;;;18.67;14.38;;;12.10;88.30;;;;;;10870688;32;20019;-73
2022/12/28 02:20:54;;;;;;;17.33;12.95;;;12.10;88.20;;;;;;10870542;32;20398;-73
2022/12/28 02:27:44;;;;;;;20.80;14.02;;;12.20;88.10;;;;;;10856847;32;20054;-73
2022/12/28 02:33:56;;;;;;;15.55;13.93;;;12.20;88.00;;;;;;10792993;32;20032;-73
2022/12/28 02:40:05;;;;;;;20.85;15.15;;;12.20;88.00;;;;;;10790774;33;20398;-73
2022/12/28 02:53:32;;;;;;;16.33;12.43;;;12.20;87.90;;;;;;10719239;33;20037;-73
2022/12/28 02:59:43;;;;;;;21.65;15.02;;;12.20;87.80;;;;;;10730308;33;20068;-73
2022/12/28 03:12:35;;;;;;;16.25;12.15;;;12.10;87.70;;;;;;10783756;33;20048;-73
2022/12/28 03:31:29;;;;;;;11.77;9.50;;;12.00;87.60;;;;;;10868501;32;20055;-73
2022/12/28 03:37:42;;;;;;;11.52;9.88;;;12.00;87.50;;;;;;10867822;32;20086;-73
2022/12/28 03:43:49;;;;;;;13.80;9.95;;;12.00;87.60;;;;;;10868901;32;20023;-73
2022/12/28 03:49:52;;;;;;;14.10;10.75;;;12.00;87.60;;;;;;10867429;32;20050;-73
2022/12/28 03:56:22;;;;;;;11.20;7.07;;;12.00;87.50;;;;;;10867344;32;20020;-73
2022/12/28 04:02:27;;;;;;;9.68;6.47;;;11.80;87.40;;;;;;10867159;32;20016;-73
2022/12/28 04:08:30;;;;;;;10.40;6.12;;;11.90;87.50;;;;;;10866933;32;20047;-73
2022/12/28 04:14:32;;;;;;;9.77;6.78;;;11.70;87.60;;;;;;10866894;32;20398;-73
2022/12/28 04:20:34;;;;;;;12.10;5.75;;;11.80;87.70;;;;;;10866812;32;20361;-73
2022/12/28 04:26:36;;;;;;;7.80;4.22;;;11.80;87.70;;;;;;10866671;32;20016;-73
2022/12/28 04:32:39;;;;;;;7.43;5.32;;;11.90;87.40;;;;;;10866529;32;20047;-73
2022/12/28 04:38:41;;;;;;;8.52;5.18;;;11.90;87.50;;;;;;10852373;32;20052;-73
2022/12/28 04:44:43;;;;;;;9.02;5.95;;;11.90;87.30;;;;;;10866260;32;20314;-73
2022/12/28 04:50:45;;;;;;;7.70;4.53;;;11.90;87.40;;;;;;10864491;32;20050;-73
2022/12/28 04:56:47;;;;;;;6.22;4.25;;;11.90;87.50;;;;;;10866141;32;20322;-73
2022/12/28 05:02:49;;;;;;;7.03;4.47;;;12.00;87.10;;;;;;10839928;32;20398;-73
2022/12/28 05:08:52;;;;;;;7.82;4.80;;;12.10;87.00;;;;;;10864809;32;20047;-73
2022/12/28 05:14:54;;;;;;;6.35;4.20;;;12.20;86.70;;;;;;10865841;32;20019;-73
2022/12/28 05:21:14;;;;;;;6.65;4.40;;;12.20;86.30;;;;;;10870886;32;20019;-73
2022/12/28 05:27:16;;;;;;;5.47;4.45;;;12.20;86.00;;;;;;10859263;32;20020;-73
2022/12/28 05:33:18;;;;;;;6.78;4.15;;;12.10;86.00;;;;;;10872165;32;20048;-73
2022/12/28 05:39:20;;;;;;;7.03;4.65;;;12.20;85.90;;;;;;10871935;32;20039;-73
2022/12/28 05:45:22;;;;;;;8.13;5.75;;;12.20;86.00;;;;;;10845605;32;20019;-73
2022/12/28 05:51:27;;;;;;;6.25;4.80;;;12.30;85.40;;;;;;10871532;32;20054;-74
2022/12/28 05:57:29;;;;;;;6.47;4.37;;;12.40;85.20;;;;;;10857868;32;20023;-74
2022/12/28 06:03:31;;;;;;;6.32;4.80;;;12.50;85.20;;;;;;10871175;32;20391;-73
2022/12/28 06:09:33;;;;;;;5.03;4.07;;;12.50;84.90;;;;;;10870703;32;20019;-73
2022/12/28 06:15:35;;;;;;;7.12;5.05;;;12.60;84.70;;;;;;10870763;32;20039;-73
2022/12/28 06:21:38;;;;;;;6.18;4.07;;;12.50;84.70;;;;;;10856584;32;20031;-74
2022/12/28 06:27:41;;;;;;;6.78;4.47;;;12.60;84.80;;;;;;10869958;32;20042;-73
2022/12/28 06:33:43;;;;;;;7.05;3.90;;;12.70;85.10;;;;;;10869369;32;20333;-73
2022/12/28 06:39:46;;;;;;;5.87;4.47;;;12.80;85.00;;;;;;10856659;32;20051;-73
2022/12/28 06:45:57;;;;;;;6.95;4.68;;;12.80;84.40;;;;;;10869492;32;20038;-73
2022/12/28 06:51:59;;;;;;;6.78;3.78;;;12.90;84.60;;;;;;10866732;32;20377;-73
2022/12/28 06:58:01;;;;;;;4.93;3.40;;;12.90;84.50;;;;;;10869165;32;20011;-73
2022/12/28 07:04:04;;;;;;;5.53;2.92;;;12.80;84.20;;;;;;10854396;32;20035;-73
2022/12/28 07:10:07;;;;;;;9.85;4.47;;;12.80;84.10;;;;;;10855461;32;20023;-73
2022/12/28 07:16:15;;;;;;;5.10;3.47;;;12.80;84.10;;;;;;10868529;32;20410;-73
2022/12/28 07:22:17;;;;;;;5.70;4.20;;;12.70;83.90;;;;;;10855052;32;20023;-73
2022/12/28 07:28:19;;;;;;;6.65;4.95;;;12.80;83.40;;;;;;10865999;32;20315;-73
2022/12/28 07:34:22;;;;;;;22.33;6.07;;;12.70;83.30;;;;;;10867840;32;20020;-73
2022/12/28 07:40:24;;;;;;;6.03;3.83;;;12.50;83.60;;;;;;10851442;32;20353;-73
2022/12/28 07:46:31;;;;;;;10.20;5.93;;;12.50;83.70;;;;;;10867712;32;20039;-73
2022/12/28 07:52:36;;;;;;;10.93;8.00;;;12.60;83.40;;;;;;10867326;32;20051;-73
2022/12/28 07:58:38;;;;;;;9.52;6.78;;;12.60;83.30;;;;;;10867122;32;20045;-74
2022/12/28 08:04:41;;;;;;;11.27;8.02;;;12.70;83.20;;;;;;10841166;32;20035;-73
2022/12/28 08:10:43;;;;;;;10.45;7.87;;;12.80;83.10;;;;;;10853650;32;20008;-73
2022/12/28 08:16:45;;;;;;;10.55;5.57;;;12.80;82.90;;;;;;10866712;32;20019;-73
2022/12/28 08:22:47;;;;;;;7.22;5.05;;;12.90;83.00;;;;;;10881894;27;20034;-73
2022/12/28 08:28:52;;;;;;;8.30;6.15;;;12.90;83.10;;;;;;10889947;32;20389;-74
2022/12/28 08:34:54;;;;;;;9.98;7.25;;;13.00;83.20;;;;;;10889488;32;20075;-73
2022/12/28 08:40:57;;;;;;;6.97;5.60;;;13.20;83.20;;;;;;10903722;32;20015;-73
2022/12/28 08:46:59;;;;;;;7.20;4.85;;;13.20;83.00;;;;;;10885996;32;20055;-73
2022/12/28 08:53:01;;;;;;;9.23;5.80;;;12.70;83.80;;;;;;10905407;32;20023;-73
2022/12/28 08:59:04;;;;;;;7.87;5.72;;;12.80;84.50;;;;;;10906329;32;20284;-73
2022/12/28 09:05:06;;;;;;;8.32;5.62;;;13.10;84.90;;;;;;10908180;32;20015;-74
2022/12/28 09:11:11;;;;;;;6.72;4.72;;;13.20;84.50;;;;;;10910056;32;20333;-73
2022/12/28 09:17:13;;;;;;;6.95;4.68;;;13.30;84.80;;;;;;10896168;32;20050;-73
2022/12/28 09:23:15;;;;;;;6.60;3.67;;;13.30;85.10;;;;;;10894391;32;20027;-73
2022/12/28 09:29:17;;;;;;;6.00;3.80;;;13.30;85.10;;;;;;10895627;32;20066;-73
2022/12/28 09:35:19;;;;;;;4.18;3.17;;;13.20;85.30;;;;;;10905661;32;20050;-73
2022/12/28 09:41:27;;;;;;;6.57;3.72;;;12.90;86.10;;;;;;10906408;32;20050;-73
2022/12/28 09:47:50;;;;;;;6.32;4.20;;;12.80;86.70;;;;;;10908850;32;20035;-73
2022/12/28 09:53:52;;;;;;;5.18;3.78;;;12.80;87.00;;;;;;10891349;32;20345;-73
2022/12/28 09:59:54;;;;;;;5.22;3.67;;;12.70;86.80;;;;;;10908420;32;20038;-73
2022/12/28 10:05:57;;;;;;;3.80;2.83;;;12.70;87.20;;;;;;10945667;32;20058;-73
2022/12/28 10:12:11;;;;;;;3.30;2.47;;;12.70;87.10;;;;;;10945535;32;20447;-73
2022/12/28 10:18:17;;;;;;;3.90;2.75;;;12.80;87.30;;;;;;10932112;32;20019;-73
2022/12/28 10:24:19;;;;;;;7.25;3.90;;;12.80;87.50;;;;;;10945291;32;20027;-73
2022/12/28 10:30:25;;;;;;;7.47;3.95;;;13.00;87.40;;;;;;10945036;32;20345;-73
2022/12/28 10:36:33;;;;;;;4.15;2.85;;;13.10;87.50;;;;;;10929371;32;20054;-73
2022/12/28 10:42:39;;;;;;;4.15;2.72;;;13.30;87.50;;;;;;10903624;32;20046;-73
2022/12/28 10:48:46;;;;;;;3.75;2.72;;;13.40;87.50;;;;;;10903525;32;20050;-72
2022/12/28 10:54:49;;;;;;;4.37;2.90;;;13.50;87.40;;;;;;10880270;32;20349;-73
2022/12/28 11:01:06;;;;;;;4.18;2.55;;;13.60;87.40;;;;;;10903764;32;20315;-73
2022/12/28 11:07:28;;;;;;;4.55;2.90;;;13.80;87.40;;;;;;10905936;32;20042;-73
2022/12/28 11:13:31;;;;;;;4.70;2.45;;;13.90;87.00;;;;;;10905851;32;20446;-75
2022/12/28 11:19:33;;;;;;;4.32;2.65;;;14.00;86.60;;;;;;10904840;32;20409;-75
2022/12/28 11:25:36;;;;;;;3.37;2.20;;;14.30;86.70;;;;;;10901539;32;20058;-75
2022/12/28 11:31:44;;;;;;;3.15;2.33;;;14.50;86.30;;;;;;10905003;32;20023;-75
2022/12/28 11:37:55;;;;;;;3.33;2.37;;;14.60;86.50;;;;;;10890341;32;20341;-76
2022/12/28 11:44:01;;;;;;;3.85;2.72;;;14.60;86.20;;;;;;10904859;32;20034;-75
2022/12/28 11:50:32;;;;;;;3.30;2.12;;;14.60;86.70;;;;;;10902632;32;20353;-75
2022/12/28 11:56:43;;;;;;;2.83;1.83;;;14.60;86.10;;;;;;10904562;32;20046;-75
2022/12/28 12:02:56;;;;;;;3.42;2.42;;;14.40;86.70;;;;;;10904370;32;20401;-75
2022/12/28 12:08:58;;;;;;;2.55;2.15;;;14.50;86.90;;;;;;10904138;32;20027;-73
2022/12/28 12:15:15;;;;;;;2.35;2.10;;;14.40;87.00;;;;;;10901444;32;20035;-73
2022/12/28 12:21:26;;;;;;;3.05;2.22;;;14.30;86.50;;;;;;10904063;32;20046;-73
2022/12/28 12:27:38;;;;;;;5.95;2.45;;;14.20;86.90;;;;;;10903025;32;20011;-74
2022/12/28 12:33:46;;;;;;;2.78;2.17;;;14.30;86.40;;;;;;10911645;32;20057;-74
2022/12/28 12:40:02;;;;;;;3.92;2.83;;;14.30;86.70;;;;;;10897992;32;20015;-74
2022/12/28 12:46:25;;;;;;;3.95;2.53;;;14.20;85.70;;;;;;10911170;32;20311;-74
2022/12/28 12:52:41;;;;;;;5.97;3.22;;;14.20;86.20;;;;;;10893025;32;20027;-74
2022/12/28 12:58:58;;;;;;;3.37;2.12;;;14.30;85.80;;;;;;10908828;32;20046;-73
2022/12/28 13:05:02;;;;;;;3.22;2.50;;;14.50;86.00;;;;;;10897132;32;20295;-73
2022/12/28 13:11:11;;;;;;;2.70;1.73;;;14.50;86.00;;;;;;10910297;32;20027;-73
2022/12/28 13:17:18;;;;;;;3.58;2.33;;;14.50;86.00;;;;;;10910264;32;20012;-73
2022/12/28 13:23:22;;;;;;;3.15;2.00;;;14.50;85.60;;;;;;10909872;32;20055;-73
2022/12/28 13:29:37;;;;;;;2.87;2.35;;;14.50;84.80;;;;;;10909649;32;20043;-74
2022/12/28 13:35:39;;;;;;;6.28;4.03;;;14.70;85.40;;;;;;10909495;32;20019;-73
2022/12/28 13:41:57;;;;;;;5.15;3.08;;;14.80;84.70;;;;;;10908685;32;20027;-73
2022/12/28 13:48:01;;;;;;;5.18;3.17;;;14.60;84.20;;;;;;10907133;32;20015;-74
2022/12/28 13:54:04;;;;;;;5.97;3.62;;;14.60;84.90;;;;;;10904585;32;20023;-73
2022/12/28 14:00:07;;;;;;;5.85;4.12;;;14.70;84.00;;;;;;10907611;32;20007;-74
2022/12/28 14:06:12;;;;;;;3.53;2.97;;;14.50;83.70;;;;;;10908417;32;20069;-73
2022/12/28 14:12:15;;;;;;;5.78;3.33;;;14.50;84.20;;;;;;10908133;32;20023;-73
2022/12/28 14:18:18;;;;;;;4.70;3.47;;;14.60;84.70;;;;;;10908050;32;20394;-73
2022/12/28 14:24:20;;;;;;;5.37;3.85;;;14.80;83.90;;;;;;10910236;32;20092;-73
2022/12/28 14:30:29;;;;;;;5.45;2.62;;;14.90;83.90;;;;;;10925735;32;20244;-74
2022/12/28 14:36:47;;;;;;;4.45;2.70;;;15.30;83.40;;;;;;10893524;32;20031;-73
2022/12/28 14:42:50;;;;;;;4.60;2.85;;;15.60;83.00;;;;;;10898636;32;20027;-74
2022/12/28 14:48:53;;;;;;;4.85;2.72;;;15.70;84.00;;;;;;10903566;32;20020;-73
2022/12/28 14:54:55;;;;;;;4.78;3.12;;;15.50;84.60;;;;;;10906238;32;20398;-74
2022/12/28 15:01:04;;;;;;;4.78;2.90;;;15.10;85.50;;;;;;10902459;32;20038;-73
2022/12/28 15:07:08;;;;;;;4.18;2.78;;;14.80;86.10;;;;;;10904643;32;20031;-74
2022/12/28 15:13:11;;;;;;;4.12;3.00;;;14.60;86.40;;;;;;10905519;32;20031;-73
2022/12/28 15:19:13;;;;;;;3.80;2.65;;;14.30;86.60;;;;;;10905639;32;20475;-73
2022/12/28 15:25:15;;;;;;;2.60;2.33;;;14.20;87.00;;;;;;10493832;32;12205542;-74
2022/12/28 15:31:19;;;;;;;5.05;3.55;;;14.00;87.20;;;;;;10888989;32;20139;-73
2022/12/28 15:37:22;;;;;;;7.90;4.00;;;14.10;87.20;;;;;;10899012;32;20038;-74
2022/12/28 15:43:24;;;;;;;6.82;4.72;;;14.00;86.80;;;;;;10867894;32;20050;-73
2022/12/28 15:49:26;;;;;;;7.00;5.25;;;14.00;86.60;;;;;;10879743;32;20011;-74
2022/12/28 15:55:30;;;;;;;6.85;4.80;;;13.90;86.70;;;;;;10904539;32;20382;-75
2022/12/28 16:01:33;;;;;;;8.65;5.78;;;13.80;86.40;;;;;;10890545;32;20382;-75
2022/12/28 16:07:35;;;;;;;7.68;5.70;;;13.70;86.50;;;;;;10891210;32;20038;-75
2022/12/28 16:13:37;;;;;;;10.07;5.97;;;13.60;86.50;;;;;;10903495;32;20311;-75
2022/12/28 16:19:40;;;;;;;8.13;5.68;;;13.50;86.50;;;;;;10886214;32;20326;-75
2022/12/28 16:25:49;;;;;;;6.90;4.57;;;13.30;86.40;;;;;;10935850;27;20070;-75
2022/12/28 16:31:51;;;;;;;10.43;5.37;;;13.00;86.70;;;;;;10926763;32;20081;-75
2022/12/28 16:37:53;;;;;;;10.45;7.30;;;13.00;86.50;;;;;;10941276;32;20061;-75
2022/12/28 16:44:05;;;;;;;13.15;9.30;;;13.00;86.20;;;;;;10923448;32;20030;-75
2022/12/28 16:50:08;;;;;;;9.10;7.30;;;13.00;86.00;;;;;;10940734;32;20053;-75
2022/12/28 16:56:10;;;;;;;11.07;8.02;;;12.80;85.80;;;;;;10941032;32;20011;-75
2022/12/28 17:02:12;;;;;;;12.07;9.52;;;12.70;86.10;;;;;;10939382;32;20066;-75
2022/12/28 17:08:15;;;;;;;16.23;11.35;;;12.70;85.90;;;;;;10920854;32;20053;-75
2022/12/28 17:14:17;;;;;;;13.98;10.65;;;12.70;85.60;;;;;;10942639;32;20057;-75
2022/12/28 17:20:21;;;;;;;13.50;11.68;;;12.70;85.30;;;;;;10947717;32;20015;-75
2022/12/28 17:26:23;;;;;;;26.00;21.00;;;12.70;85.20;;;;;;10933960;32;20032;-75
2022/12/28 17:32:25;;;;;;;20.40;16.70;;;12.70;85.20;;;;;;10946979;32;20018;-75
2022/12/28 17:38:28;;;;;;;18.65;14.40;;;12.60;85.00;;;;;;10946251;32;20110;-75
2022/12/28 17:44:31;;;;;;;20.48;15.25;;;12.50;84.90;;;;;;10938551;32;20035;-75
2022/12/28 17:50:33;;;;;;;20.10;13.93;;;12.50;84.80;;;;;;10984357;32;20443;-75
2022/12/28 17:56:36;;;;;;;22.10;15.63;;;12.50;84.50;;;;;;10967075;32;20034;-75
2022/12/28 18:02:39;;;;;;;26.87;20.00;;;12.60;84.20;;;;;;10962882;32;20065;-74
2022/12/28 18:08:41;;;;;;;22.95;20.30;;;12.50;83.90;;;;;;10983867;32;20051;-75
2022/12/28 18:14:43;;;;;;;23.55;20.12;;;12.60;84.10;;;;;;10983433;32;20023;-75
2022/12/28 18:20:55;;;;;;;20.77;16.40;;;12.70;83.70;;;;;;10983245;32;20415;-75
2022/12/28 18:26:57;;;;;;;35.88;28.52;;;12.60;83.30;;;;;;10982878;32;20027;-75
2022/12/28 18:33:00;;;;;;;23.58;18.85;;;12.60;83.00;;;;;;10982194;32;20031;-75
2022/12/28 18:39:02;;;;;;;31.37;26.95;;;12.70;82.90;;;;;;10979890;32;20022;-75
2022/12/28 18:45:05;;;;;;;24.35;19.40;;;12.70;82.50;;;;;;10968782;32;20056;-75
2022/12/28 18:51:12;;;;;;;29.80;23.30;;;12.50;82.30;;;;;;10982242;32;20050;-75
2022/12/28 18:57:14;;;;;;;25.80;20.77;;;12.50;82.60;;;;;;10968293;32;20439;-75
2022/12/28 19:03:16;;;;;;;24.40;17.67;;;12.60;82.50;;;;;;10981690;32;20042;-75
2022/12/28 19:09:18;;;;;;;22.10;17.77;;;12.70;82.60;;;;;;10979450;32;20027;-75
2022/12/28 19:15:20;;;;;;;22.10;17.23;;;12.60;82.70;;;;;;10981120;32;20027;-75
2022/12/28 19:21:31;;;;;;;24.00;18.50;;;12.40;82.80;;;;;;10980684;32;20046;-74
2022/12/28 19:27:33;;;;;;;19.80;16.87;;;12.60;82.70;;;;;;10980591;32;20027;-75
2022/12/28 19:33:36;;;;;;;20.48;17.70;;;12.70;82.30;;;;;;10945791;32;20034;-75
2022/12/28 19:39:38;;;;;;;29.92;21.50;;;12.70;82.00;;;;;;10928521;32;20057;-75
2022/12/28 19:45:41;;;;;;;25.83;20.77;;;12.70;82.40;;;;;;10942612;32;20049;-75
2022/12/28 19:51:43;;;;;;;21.10;18.27;;;12.90;82.70;;;;;;10942402;32;20041;-75
2022/12/28 19:57:45;;;;;;;26.52;20.55;;;13.00;82.70;;;;;;10928530;32;20392;-75
2022/12/28 20:03:47;;;;;;;21.40;17.58;;;12.90;82.40;;;;;;10942093;32;20011;-75
2022/12/28 20:09:50;;;;;;;27.77;22.73;;;12.80;82.20;;;;;;10927843;32;20431;-75
2022/12/28 20:15:54;;;;;;;27.33;20.17;;;12.70;82.00;;;;;;10941601;32;20019;-75
2022/12/28 20:21:56;;;;;;;31.15;23.77;;;12.70;81.80;;;;;;10928166;32;20388;-75
2022/12/28 20:27:58;;;;;;;29.98;21.80;;;12.80;81.50;;;;;;10941443;32;20019;-74
2022/12/28 20:34:00;;;;;;;24.12;19.52;;;12.70;81.30;;;;;;10928310;32;20015;-75
2022/12/28 20:40:04;;;;;;;26.02;20.50;;;12.70;81.20;;;;;;10923209;32;20039;-75
2022/12/28 20:46:10;;;;;;;38.00;25.33;;;12.80;81.20;;;;;;10941007;32;20420;-75
2022/12/28 20:52:12;;;;;;;30.33;23.98;;;12.80;81.00;;;;;;10946889;32;20027;-74
2022/12/28 20:58:14;;;;;;;31.48;24.40;;;12.80;80.90;;;;;;10948442;32;20349;-75
2022/12/28 21:04:17;;;;;;;29.50;24.02;;;12.70;80.90;;;;;;10948251;32;20023;-74
2022/12/28 21:10:19;;;;;;;30.88;24.02;;;12.20;81.70;;;;;;10933131;32;20018;-75
2022/12/28 21:16:21;;;;;;;30.48;25.80;;;11.80;82.80;;;;;;10947965;32;20051;-75
2022/12/28 21:22:23;;;;;;;28.27;23.27;;;11.70;83.20;;;;;;10947664;32;20031;-75
2022/12/28 21:28:26;;;;;;;31.90;24.10;;;11.50;83.30;;;;;;10947561;32;20027;-75
2022/12/28 21:34:29;;;;;;;32.88;26.27;;;11.50;83.80;;;;;;10929248;32;20356;-75
2022/12/28 21:40:31;;;;;;;27.25;21.98;;;11.60;83.70;;;;;;10933878;32;20054;-75
2022/12/28 21:46:34;;;;;;;23.92;20.92;;;11.70;83.50;;;;;;10920797;32;20031;-75
2022/12/28 21:52:37;;;;;;;28.08;22.17;;;11.80;83.50;;;;;;10928426;32;20356;-75
2022/12/28 21:58:43;;;;;;;32.50;26.50;;;12.00;83.00;;;;;;10915377;32;20030;-75
2022/12/28 22:17:31;;;;;;;31.70;26.52;;;12.50;83.20;;;;;;10946024;32;20069;-73
2022/12/28 22:23:33;;;;;;;39.45;32.72;;;12.50;83.00;;;;;;10945730;32;20042;-73
2022/12/28 22:29:35;;;;;;;42.45;33.00;;;12.10;83.10;;;;;;10945540;32;20045;-73
2022/12/28 22:35:37;;;;;;;35.28;28.02;;;12.20;83.70;;;;;;10945125;32;20069;-73
2022/12/28 22:41:40;;;;;;;31.80;23.80;;;12.10;83.40;;;;;;10945106;32;20341;-73
2022/12/28 22:47:43;;;;;;;33.28;27.42;;;11.90;83.30;;;;;;10944904;32;20054;-73
2022/12/28 22:53:46;;;;;;;41.40;31.33;;;11.80;83.20;;;;;;10944575;32;20023;-73
2022/12/28 22:59:49;;;;;;;30.35;25.25;;;11.80;83.20;;;;;;10944287;32;20019;-73
2022/12/28 23:05:51;;;;;;;36.72;27.60;;;11.90;83.00;;;;;;10944075;32;20045;-73
2022/12/28 23:11:54;;;;;;;32.05;28.55;;;11.80;83.10;;;;;;10929400;32;20077;-74
2022/12/28 23:27:18;;;;;;;36.20;28.77;;;11.90;83.50;;;;;;10929963;32;20034;-73
2022/12/28 23:30:59;;;;;;;34.88;24.27;;;11.70;83.80;;;;;;10864038;32;20054;-73
2022/12/28 23:37:01;;;;;;;35.92;26.62;;;11.20;84.30;;;;;;10852585;32;20031;-73
2022/12/28 23:43:03;;;;;;;31.80;26.25;;;10.90;84.90;;;;;;10863757;32;20370;-73
2022/12/28 23:49:07;;;;;;;41.28;31.58;;;10.90;85.10;;;;;;10860578;32;20058;-73
2022/12/28 23:55:09;;;;;;;29.23;25.23;;;11.20;85.00;;;;;;10863488;32;20027;-73
